createdAt,value
2017-09-29T00:00:27.353Z,55.85
2017-09-29T00:03:01.876Z,59.15
2017-09-29T00:05:36.303Z,53.47
2017-09-29T00:08:10.744Z,46.50
2017-09-29T00:10:45.196Z,48.35
2017-09-29T00:13:19.930Z,47.05
2017-09-29T00:15:54.286Z,51.88
2017-09-29T00:18:28.813Z,48.75
2017-09-29T00:21:03.397Z,50.03
2017-09-29T00:23:38.632Z,53.40
2017-09-29T00:26:13.035Z,61.50
2017-09-29T00:28:47.475Z,58.28
2017-09-29T00:31:22.143Z,51.88
2017-09-29T00:33:56.636Z,52.88
2017-09-29T00:36:31.216Z,57.80
2017-09-29T00:39:05.713Z,53.42
2017-09-29T00:41:40.331Z,54.58
2017-09-29T00:44:14.843Z,55.00
2017-09-29T00:46:49.249Z,54.35
2017-09-29T00:49:23.600Z,57.65
2017-09-29T00:51:58.180Z,57.30
2017-09-29T00:54:32.561Z,62.55
2017-09-29T00:57:07.662Z,55.70
2017-09-29T00:59:42.186Z,53.63
2017-09-29T01:02:17.321Z,55.53
2017-09-29T01:04:51.743Z,60.15
2017-09-29T01:07:26.092Z,53.92
2017-09-29T01:10:00.486Z,59.70
2017-09-29T01:12:34.824Z,52.88
2017-09-29T01:15:09.296Z,62.10
2017-09-29T01:17:43.809Z,58.95
2017-09-29T01:20:18.407Z,56.80
2017-09-29T01:22:52.923Z,58.10
2017-09-29T01:25:27.411Z,52.62
2017-09-29T01:28:01.760Z,57.28
2017-09-29T01:30:37.032Z,51.58
2017-09-29T01:33:12.396Z,56.10
2017-09-29T01:35:47.591Z,56.42
2017-09-29T01:38:23.757Z,51.13
2017-09-29T01:40:58.625Z,52.72
2017-09-29T01:43:32.949Z,58.83
2017-09-29T01:46:07.340Z,53.38
2017-09-29T01:48:41.846Z,51.70
2017-09-29T01:51:16.416Z,57.00
2017-09-29T01:53:50.885Z,53.97
2017-09-29T01:56:25.309Z,55.22
2017-09-29T01:59:00.464Z,54.50
2017-09-29T02:01:34.892Z,58.17
2017-09-29T02:04:09.418Z,51.97
2017-09-29T02:06:44.050Z,51.05
2017-09-29T02:09:18.548Z,53.10
2017-09-29T02:11:52.982Z,49.55
2017-09-29T02:14:28.192Z,49.00
2017-09-29T02:17:02.792Z,47.97
2017-09-29T02:19:37.262Z,51.60
2017-09-29T02:22:11.636Z,47.97
2017-09-29T02:24:46.106Z,48.60
2017-09-29T02:27:20.592Z,51.20
2017-09-29T02:29:55.048Z,45.78
2017-09-29T02:32:30.292Z,49.05
2017-09-29T02:35:05.491Z,48.80
2017-09-29T02:37:39.979Z,48.35
2017-09-29T02:40:14.514Z,52.08
2017-09-29T02:42:48.887Z,49.40
2017-09-29T02:45:23.283Z,47.85
2017-09-29T02:47:58.650Z,43.63
2017-09-29T02:50:33.036Z,46.80
2017-09-29T02:53:07.502Z,47.03
2017-09-29T02:55:42.688Z,49.25
2017-09-29T02:58:21.535Z,47.75
2017-09-29T03:01:01.124Z,53.42
2017-09-29T03:03:41.863Z,46.80
2017-09-29T03:06:17.492Z,50.85
2017-09-29T03:08:51.928Z,48.70
2017-09-29T03:11:26.425Z,46.28
2017-09-29T03:14:00.970Z,45.97
2017-09-29T03:16:35.403Z,51.45
2017-09-29T03:19:09.823Z,50.10
2017-09-29T03:21:44.213Z,45.78
2017-09-29T03:24:18.688Z,46.47
2017-09-29T03:26:53.157Z,46.72
2017-09-29T03:29:27.548Z,46.97
2017-09-29T03:32:01.992Z,43.78
2017-09-29T03:34:36.432Z,43.55
2017-09-29T03:37:10.776Z,46.50
2017-09-29T03:39:46.185Z,48.08
2017-09-29T03:42:20.621Z,43.28
2017-09-29T03:44:55.003Z,43.67
2017-09-29T03:47:29.869Z,41.97
2017-09-29T03:50:10.523Z,44.90
2017-09-29T03:52:48.936Z,42.60
2017-09-29T03:55:32.429Z,45.05
2017-09-29T03:58:17.413Z,44.67
2017-09-29T04:00:52.247Z,48.08
2017-09-29T04:03:26.884Z,46.03
2017-09-29T04:06:01.204Z,47.15
2017-09-29T04:08:35.539Z,51.37
2017-09-29T04:11:10.731Z,48.95
2017-09-29T04:13:45.275Z,48.08
2017-09-29T04:16:19.771Z,46.15
2017-09-29T04:18:55.019Z,47.42
2017-09-29T04:21:29.425Z,49.15
2017-09-29T04:24:03.769Z,50.15
2017-09-29T04:26:38.232Z,53.80
2017-09-29T04:29:12.586Z,53.90
2017-09-29T04:31:47.377Z,50.12
2017-09-29T04:34:21.691Z,49.30
2017-09-29T04:36:56.183Z,50.67
2017-09-29T04:39:30.743Z,49.00
2017-09-29T04:42:05.144Z,51.42
2017-09-29T04:44:40.305Z,60.22
2017-09-29T04:47:14.625Z,55.78
2017-09-29T04:49:48.976Z,48.45
2017-09-29T04:52:23.600Z,48.05
2017-09-29T04:54:58.048Z,55.05
2017-09-29T04:57:32.539Z,54.95
2017-09-29T05:00:06.988Z,63.20
2017-09-29T05:02:41.471Z,55.08
2017-09-29T05:05:15.814Z,51.90
2017-09-29T05:07:50.924Z,53.53
2017-09-29T05:10:25.689Z,52.00
2017-09-29T05:13:00.024Z,52.80
2017-09-29T05:15:34.731Z,53.60
2017-09-29T05:18:09.186Z,53.08
2017-09-29T05:20:43.875Z,53.30
2017-09-29T05:23:18.361Z,54.75
2017-09-29T05:25:52.743Z,53.05
2017-09-29T05:28:27.223Z,58.45
2017-09-29T05:31:01.625Z,68.40
2017-09-29T05:33:36.769Z,60.15
2017-09-29T05:36:11.069Z,58.33
2017-09-29T05:38:45.587Z,57.08
2017-09-29T05:41:20.096Z,60.28
2017-09-29T05:43:54.573Z,63.00
2017-09-29T05:46:29.016Z,57.35
2017-09-29T05:49:03.559Z,56.28
2017-09-29T05:51:38.136Z,57.90
2017-09-29T05:54:12.817Z,53.28
2017-09-29T05:56:47.402Z,58.55
2017-09-29T05:59:21.779Z,57.75
2017-09-29T06:01:56.157Z,55.10
2017-09-29T06:04:30.630Z,57.00
2017-09-29T06:07:05.247Z,55.30
2017-09-29T06:09:39.706Z,61.37
2017-09-29T06:12:14.189Z,52.88
2017-09-29T06:14:48.827Z,52.85
2017-09-29T06:17:24.051Z,53.53
2017-09-29T06:19:58.526Z,56.33
2017-09-29T06:22:32.808Z,53.22
2017-09-29T06:25:07.133Z,48.40
2017-09-29T06:27:41.546Z,49.80
2017-09-29T06:30:16.049Z,46.83
2017-09-29T06:35:53.858Z,45.45
2017-09-29T06:38:29.093Z,45.38
2017-09-29T06:41:04.368Z,45.30
2017-09-29T06:43:39.564Z,44.88
2017-09-29T06:46:14.846Z,45.33
2017-09-29T06:48:49.330Z,44.85
2017-09-29T06:51:23.675Z,43.42
2017-09-29T06:53:58.888Z,49.08
2017-09-29T06:56:33.263Z,46.60
2017-09-29T06:59:07.605Z,46.80
2017-09-29T07:01:41.980Z,44.53
2017-09-29T07:04:16.456Z,45.63
2017-09-29T07:06:51.125Z,49.28
2017-09-29T07:09:26.225Z,44.80
2017-09-29T07:12:00.588Z,41.30
2017-09-29T07:14:34.918Z,42.30
2017-09-29T07:17:10.260Z,43.65
2017-09-29T07:19:44.712Z,43.17
2017-09-29T07:25:02.561Z,39.88
2017-09-29T07:27:40.527Z,42.40
2017-09-29T07:30:20.277Z,41.50
2017-09-29T07:32:56.859Z,43.50
2017-09-29T07:35:31.316Z,41.30
2017-09-29T07:38:05.764Z,41.95
2017-09-29T07:40:40.083Z,39.85
2017-09-29T07:43:14.456Z,39.55
2017-09-29T07:45:48.816Z,39.05
2017-09-29T07:48:23.550Z,49.70
2017-09-29T07:50:57.880Z,40.33
2017-09-29T07:53:32.205Z,41.17
2017-09-29T07:56:06.725Z,42.33
2017-09-29T07:58:41.139Z,41.10
2017-09-29T08:01:15.480Z,41.53
2017-09-29T08:03:50.006Z,39.78
2017-09-29T08:06:24.396Z,38.38
2017-09-29T08:08:59.004Z,43.00
2017-09-29T08:11:33.412Z,41.13
2017-09-29T08:14:08.312Z,39.88
2017-09-29T08:16:42.686Z,40.38
2017-09-29T08:19:17.193Z,38.83
2017-09-29T08:21:51.667Z,40.58
2017-09-29T08:24:26.260Z,41.90
2017-09-29T08:27:00.809Z,39.38
2017-09-29T08:29:35.371Z,39.17
2017-09-29T08:32:09.939Z,39.25
2017-09-29T08:34:44.396Z,37.92
2017-09-29T08:37:18.976Z,40.60
2017-09-29T08:39:53.321Z,39.55
2017-09-29T08:42:28.171Z,40.78
2017-09-29T08:45:02.694Z,39.72
2017-09-29T08:47:37.322Z,40.95
2017-09-29T08:50:12.059Z,38.72
2017-09-29T08:52:46.583Z,38.42
2017-09-29T08:55:21.011Z,34.78
2017-09-29T08:57:55.533Z,37.63
2017-09-29T09:00:29.864Z,35.95
2017-09-29T09:03:04.386Z,38.80
2017-09-29T09:05:38.918Z,37.80
2017-09-29T09:08:13.389Z,38.25
2017-09-29T09:10:47.880Z,37.67
2017-09-29T09:13:22.393Z,36.75
2017-09-29T09:15:56.797Z,35.05
2017-09-29T09:18:31.212Z,38.63
2017-09-29T09:21:05.580Z,36.83
2017-09-29T09:23:40.403Z,37.15
2017-09-29T09:26:14.907Z,37.13
2017-09-29T09:28:49.501Z,39.38
2017-09-29T09:31:23.973Z,39.37
2017-09-29T09:33:58.496Z,39.47
2017-09-29T09:36:32.937Z,35.35
2017-09-29T09:39:07.501Z,39.17
2017-09-29T09:41:41.828Z,35.30
2017-09-29T09:44:16.180Z,35.00
2017-09-29T09:46:50.659Z,36.77
2017-09-29T09:49:24.999Z,35.67
2017-09-29T09:51:59.490Z,35.77
2017-09-29T09:54:33.840Z,38.00
2017-09-29T09:57:08.328Z,35.70
2017-09-29T09:59:42.782Z,33.70
2017-09-29T10:02:17.125Z,31.43
2017-09-29T10:04:51.513Z,31.93
2017-09-29T10:07:26.679Z,32.73
2017-09-29T10:10:01.887Z,29.40
2017-09-29T10:12:36.206Z,30.80
2017-09-29T10:15:10.608Z,32.13
2017-09-29T10:17:44.951Z,29.57
2017-09-29T10:20:19.368Z,28.87
2017-09-29T10:22:53.708Z,29.73
2017-09-29T10:25:43.859Z,30.33
2017-09-29T10:28:18.413Z,32.40
2017-09-29T10:30:52.910Z,31.50
2017-09-29T10:33:27.356Z,30.33
2017-09-29T10:36:01.832Z,31.70
2017-09-29T10:38:36.321Z,33.80
2017-09-29T10:41:10.824Z,34.03
2017-09-29T10:43:45.912Z,34.00
2017-09-29T10:46:21.148Z,33.77
2017-09-29T10:48:56.328Z,33.43
2017-09-29T10:51:30.841Z,32.50
2017-09-29T10:54:05.382Z,33.87
2017-09-29T10:56:39.917Z,33.77
2017-09-29T10:59:14.509Z,34.00
2017-09-29T11:01:49.024Z,33.50
2017-09-29T11:04:23.500Z,33.90
2017-09-29T11:06:58.798Z,33.27
2017-09-29T11:09:34.020Z,35.87
2017-09-29T11:12:08.456Z,33.70
2017-09-29T11:14:42.894Z,33.63
2017-09-29T11:17:17.218Z,31.63
2017-09-29T11:19:51.685Z,34.40
2017-09-29T11:22:26.146Z,34.23
2017-09-29T11:25:00.616Z,35.67
2017-09-29T11:27:35.291Z,33.73
2017-09-29T11:30:09.740Z,34.60
2017-09-29T11:32:44.976Z,32.27
2017-09-29T11:35:19.532Z,34.30
2017-09-29T11:37:54.691Z,34.40
2017-09-29T11:40:29.211Z,35.07
2017-09-29T11:43:03.653Z,33.63
2017-09-29T11:45:38.165Z,34.77
2017-09-29T11:48:12.629Z,32.60
2017-09-29T11:50:47.896Z,35.00
2017-09-29T11:53:22.483Z,34.73
2017-09-29T11:55:56.996Z,36.63
2017-09-29T11:58:31.364Z,33.53
2017-09-29T12:01:06.508Z,33.50
2017-09-29T12:03:40.931Z,33.33
2017-09-29T12:06:15.420Z,32.87
2017-09-29T12:08:49.877Z,33.33
2017-09-29T12:11:24.224Z,34.93
2017-09-29T12:13:59.639Z,32.37
2017-09-29T12:16:34.132Z,31.80
2017-09-29T12:19:08.466Z,31.23
2017-09-29T12:21:43.712Z,36.17
2017-09-29T12:24:18.192Z,37.83
2017-09-29T12:26:52.722Z,36.57
2017-09-29T12:29:27.120Z,36.63
2017-09-29T12:32:01.687Z,36.20
2017-09-29T12:34:36.976Z,36.57
2017-09-29T12:37:12.247Z,33.63
2017-09-29T12:39:46.664Z,34.33
2017-09-29T12:42:21.167Z,35.20
2017-09-29T12:44:55.791Z,36.50
2017-09-29T12:47:30.278Z,36.80
2017-09-29T12:50:04.755Z,38.77
2017-09-29T12:52:40.114Z,36.97
2017-09-29T12:55:14.537Z,34.50
2017-09-29T12:57:49.085Z,37.23
2017-09-29T13:00:23.556Z,36.73
2017-09-29T13:02:58.175Z,38.80
2017-09-29T13:05:32.515Z,35.70
2017-09-29T13:08:06.870Z,37.17
2017-09-29T13:10:41.420Z,37.63
2017-09-29T13:13:15.843Z,35.50
2017-09-29T13:15:50.287Z,34.37
2017-09-29T13:18:24.608Z,38.83
2017-09-29T13:20:59.826Z,35.07
2017-09-29T13:23:34.432Z,35.30
2017-09-29T13:26:08.871Z,34.83
2017-09-29T13:28:43.439Z,35.97
2017-09-29T13:31:18.524Z,34.77
2017-09-29T13:33:53.139Z,32.57
2017-09-29T13:36:27.615Z,33.40
2017-09-29T13:39:02.232Z,33.00
2017-09-29T13:41:36.607Z,31.43
2017-09-29T13:44:11.140Z,31.87
2017-09-29T13:46:45.532Z,32.47
2017-09-29T13:49:20.123Z,32.20
2017-09-29T13:51:54.523Z,31.97
2017-09-29T13:54:28.979Z,33.23
2017-09-29T13:57:04.172Z,32.83
2017-09-29T13:59:38.736Z,30.57
2017-09-29T14:02:13.344Z,31.57
2017-09-29T14:04:47.834Z,30.53
2017-09-29T14:07:22.259Z,31.03
2017-09-29T14:09:56.662Z,30.37
2017-09-29T14:12:31.041Z,30.80
2017-09-29T14:15:06.227Z,31.57
2017-09-29T14:17:40.711Z,30.70
2017-09-29T14:20:15.183Z,31.10
2017-09-29T14:22:49.538Z,32.07
2017-09-29T14:25:24.103Z,30.53
2017-09-29T14:27:58.596Z,32.67
2017-09-29T14:30:33.086Z,30.33
2017-09-29T14:33:07.576Z,28.40
2017-09-29T14:35:42.010Z,31.20
2017-09-29T14:38:16.679Z,30.80
2017-09-29T14:40:51.086Z,30.53
2017-09-29T14:43:25.610Z,33.23
2017-09-29T14:46:00.141Z,30.43
2017-09-29T14:48:34.639Z,29.70
2017-09-29T14:51:09.168Z,32.00
2017-09-29T14:53:43.599Z,30.63
2017-09-29T14:56:18.047Z,28.77
2017-09-29T14:58:52.502Z,31.90
2017-09-29T15:01:26.972Z,31.30
2017-09-29T15:04:01.484Z,32.47
2017-09-29T15:06:36.772Z,31.70
2017-09-29T15:09:11.414Z,30.70
2017-09-29T15:11:45.920Z,31.40
2017-09-29T15:14:20.263Z,31.03
2017-09-29T15:16:54.777Z,33.00
2017-09-29T15:19:29.115Z,32.33
2017-09-29T15:22:03.639Z,32.10
2017-09-29T15:24:38.271Z,33.87
2017-09-29T15:27:12.821Z,33.30
2017-09-29T15:29:47.165Z,31.80
2017-09-29T15:32:22.662Z,31.60
2017-09-29T15:34:57.274Z,32.13
2017-09-29T15:37:31.748Z,31.10
2017-09-29T15:40:06.297Z,32.73
2017-09-29T15:42:40.960Z,34.47
2017-09-29T15:45:16.211Z,32.43
2017-09-29T15:47:51.108Z,31.63
2017-09-29T15:50:25.628Z,33.07
2017-09-29T15:53:00.018Z,33.13
2017-09-29T15:55:34.469Z,34.40
2017-09-29T15:58:08.875Z,33.70
2017-09-29T16:00:43.414Z,34.90
2017-09-29T16:03:17.770Z,34.73
2017-09-29T16:05:52.482Z,32.67
2017-09-29T16:08:28.254Z,34.30
2017-09-29T16:11:02.615Z,35.23
2017-09-29T16:13:39.699Z,33.17
2017-09-29T16:16:15.011Z,37.47
2017-09-29T16:18:49.478Z,35.93
2017-09-29T16:21:23.985Z,36.20
2017-09-29T16:23:58.537Z,35.73
2017-09-29T16:26:33.052Z,38.17
2017-09-29T16:29:07.407Z,37.93
2017-09-29T16:31:44.595Z,35.70
2017-09-29T16:34:19.172Z,37.10
2017-09-29T16:36:53.883Z,38.83
2017-09-29T16:39:28.863Z,37.00
2017-09-29T16:42:03.330Z,37.50
2017-09-29T16:44:38.074Z,40.07
2017-09-29T16:47:14.417Z,39.08
2017-09-29T16:49:49.337Z,38.40
2017-09-29T16:52:23.767Z,37.35
2017-09-29T16:54:58.221Z,37.17
2017-09-29T16:57:32.528Z,38.60
2017-09-29T17:00:06.841Z,37.97
2017-09-29T17:02:41.277Z,35.95
2017-09-29T17:05:15.735Z,36.47
2017-09-29T17:07:50.168Z,35.95
2017-09-29T17:10:24.513Z,34.78
2017-09-29T17:12:58.947Z,36.08
2017-09-29T17:15:34.053Z,36.72
2017-09-29T17:18:08.564Z,38.40
2017-09-29T17:20:43.308Z,36.78
2017-09-29T17:23:19.372Z,39.42
2017-09-29T17:25:53.923Z,36.17
2017-09-29T17:28:28.486Z,39.15
2017-09-29T17:31:03.121Z,43.03
2017-09-29T17:33:37.592Z,38.75
2017-09-29T17:36:12.103Z,40.75
2017-09-29T17:38:46.527Z,45.30
2017-09-29T17:41:21.229Z,46.55
2017-09-29T17:43:55.585Z,42.92
2017-09-29T17:46:30.509Z,41.42
2017-09-29T17:49:05.283Z,39.22
2017-09-29T17:51:39.823Z,40.05
2017-09-29T17:54:14.339Z,39.85
2017-09-29T17:56:48.817Z,41.67
2017-09-29T17:59:23.181Z,39.70
2017-09-29T18:01:57.605Z,38.85
2017-09-29T18:04:32.275Z,45.42
2017-09-29T18:07:06.657Z,39.33
2017-09-29T18:09:41.244Z,42.53
2017-09-29T18:12:15.661Z,39.92
2017-09-29T18:14:50.184Z,43.55
2017-09-29T18:17:25.337Z,41.28
2017-09-29T18:19:59.828Z,37.90
2017-09-29T18:22:35.142Z,40.45
2017-09-29T18:25:09.913Z,38.67
2017-09-29T18:27:44.572Z,38.67
2017-09-29T18:30:19.333Z,40.15
2017-09-29T18:32:54.085Z,39.67
2017-09-29T18:35:29.123Z,36.80
2017-09-29T18:38:05.012Z,35.60
2017-09-29T18:40:43.584Z,37.90
2017-09-29T18:43:21.114Z,35.30
2017-09-29T18:45:56.169Z,33.25
2017-09-29T18:48:30.985Z,32.35
2017-09-29T18:51:05.882Z,31.70
2017-09-29T18:53:41.428Z,34.08
2017-09-29T18:56:16.652Z,33.38
2017-09-29T18:58:54.424Z,31.70
2017-09-29T19:01:37.585Z,31.67
2017-09-29T19:04:13.006Z,29.67
2017-09-29T19:06:49.158Z,32.88
2017-09-29T19:09:23.943Z,28.77
2017-09-29T19:11:59.773Z,30.00
2017-09-29T19:14:35.093Z,31.70
2017-09-29T19:17:09.865Z,31.42
2017-09-29T19:19:45.105Z,29.65
2017-09-29T19:22:21.947Z,29.35
2017-09-29T19:24:56.809Z,30.48
2017-09-29T19:27:34.110Z,28.23
2017-09-29T19:30:15.662Z,26.48
2017-09-29T19:35:45.925Z,27.92
2017-09-29T19:38:24.457Z,27.85
2017-09-29T19:41:00.818Z,27.50
2017-09-29T19:43:35.625Z,27.35
2017-09-29T19:46:12.245Z,27.75
2017-09-29T19:48:48.909Z,27.05
2017-09-29T19:51:25.675Z,27.75
2017-09-29T19:54:02.314Z,26.58
2017-09-29T19:56:38.978Z,28.55
2017-09-29T19:59:14.180Z,29.02
2017-09-29T20:01:50.399Z,27.83
2017-09-29T20:04:26.388Z,28.48
2017-09-29T20:07:03.648Z,25.42
2017-09-29T20:09:41.131Z,25.45
2017-09-29T20:12:17.356Z,31.15
2017-09-29T20:14:53.336Z,27.65
2017-09-29T20:17:28.924Z,26.20
2017-09-29T20:20:05.093Z,26.52
2017-09-29T20:22:41.797Z,25.50
2017-09-29T20:25:18.043Z,25.73
2017-09-29T20:27:53.683Z,25.73
2017-09-29T20:30:30.509Z,24.80
2017-09-29T20:33:09.668Z,25.15
2017-09-29T20:35:44.192Z,26.52
2017-09-29T20:38:19.482Z,26.33
2017-09-29T20:40:54.024Z,25.40
2017-09-29T20:43:28.621Z,24.45
2017-09-29T20:46:03.843Z,25.75
2017-09-29T20:48:39.038Z,24.48
2017-09-29T20:51:14.860Z,26.10
2017-09-29T20:53:49.387Z,25.62
2017-09-29T20:56:23.923Z,25.98
2017-09-29T20:58:58.485Z,26.85
2017-09-29T21:01:33.194Z,26.30
2017-09-29T21:04:07.697Z,25.92
2017-09-29T21:06:42.648Z,26.42
2017-09-29T21:09:17.205Z,25.10
2017-09-29T21:11:52.030Z,24.00
2017-09-29T21:14:26.540Z,25.45
2017-09-29T21:17:01.798Z,24.48
2017-09-29T21:19:37.951Z,26.45
2017-09-29T21:22:12.613Z,25.73
2017-09-29T21:24:47.001Z,24.60
2017-09-29T21:27:21.352Z,24.70
2017-09-29T21:29:55.832Z,25.92
2017-09-29T21:32:31.283Z,26.23
2017-09-29T21:35:06.492Z,29.90
2017-09-29T21:37:41.006Z,24.63
2017-09-29T21:40:15.425Z,27.30
2017-09-29T21:42:50.016Z,25.42
2017-09-29T21:45:24.367Z,26.90
2017-09-29T21:47:59.571Z,26.73
2017-09-29T21:50:34.067Z,26.05
2017-09-29T21:53:09.008Z,34.33
2017-09-29T21:55:44.432Z,27.92
2017-09-29T21:58:18.989Z,26.85
2017-09-29T22:00:53.619Z,25.88
2017-09-29T22:03:28.273Z,26.30
2017-09-29T22:06:03.647Z,26.35
2017-09-29T22:08:38.820Z,27.40
2017-09-29T22:11:13.224Z,26.25
2017-09-29T22:13:47.728Z,25.40
2017-09-29T22:16:22.152Z,26.58
2017-09-29T22:18:56.694Z,24.60
2017-09-29T22:21:31.284Z,25.27
2017-09-29T22:24:05.930Z,27.20
2017-09-29T22:26:40.309Z,26.95
2017-09-29T22:29:14.970Z,28.85
2017-09-29T22:31:49.460Z,25.98
2017-09-29T22:34:23.832Z,26.05
2017-09-29T22:36:59.270Z,28.98
2017-09-29T22:39:33.793Z,25.95
2017-09-29T22:42:08.399Z,25.90
2017-09-29T22:44:42.841Z,28.85
2017-09-29T22:47:17.311Z,29.05
2017-09-29T22:49:51.822Z,26.95
2017-09-29T22:52:26.823Z,27.48
2017-09-29T22:55:03.295Z,28.90
2017-09-29T22:57:38.008Z,29.70
2017-09-29T23:00:12.518Z,27.58
2017-09-29T23:02:47.003Z,29.63
2017-09-29T23:05:21.543Z,27.77
2017-09-29T23:07:56.133Z,28.92
2017-09-29T23:10:30.621Z,31.08
2017-09-29T23:13:06.183Z,27.95
2017-09-29T23:15:40.581Z,25.42
2017-09-29T23:18:15.836Z,27.37
2017-09-29T23:20:50.195Z,28.27
2017-09-29T23:23:24.717Z,26.90
2017-09-29T23:25:59.545Z,27.37
2017-09-29T23:28:34.123Z,27.95
2017-09-29T23:31:08.581Z,29.73
2017-09-29T23:33:42.972Z,28.12
2017-09-29T23:36:18.038Z,28.90
2017-09-29T23:38:52.504Z,28.42
2017-09-29T23:41:26.851Z,28.98
2017-09-29T23:44:01.529Z,28.05
2017-09-29T23:46:36.063Z,28.45
2017-09-29T23:49:11.490Z,31.55
2017-09-29T23:51:45.859Z,29.10
2017-09-29T23:54:20.283Z,28.58
2017-09-29T23:56:54.611Z,30.40
2017-09-29T23:59:29.177Z,27.85
